sensor_id;sensor_type;location;lat;lon;timestamp;pressure;altitude;pressure_sealevel;temperature;humidity
63009;BME280;49099;28.428;-16.488;2023-04-09T00:00:16;98461.31;;;19.61;50.80
63009;BME280;49099;28.428;-16.488;2023-04-09T00:02:43;98464.81;;;19.61;50.58
63009;BME280;49099;28.428;-16.488;2023-04-09T00:05:11;98457.00;;;19.68;50.60
63009;BME280;49099;28.428;-16.488;2023-04-09T00:07:38;98461.28;;;19.69;50.21
63009;BME280;49099;28.428;-16.488;2023-04-09T00:10:06;98459.69;;;19.68;50.26
63009;BME280;49099;28.428;-16.488;2023-04-09T00:12:33;98460.03;;;19.67;50.78
63009;BME280;49099;28.428;-16.488;2023-04-09T00:15:00;98452.28;;;19.65;49.83
63009;BME280;49099;28.428;-16.488;2023-04-09T00:17:27;98455.94;;;19.61;50.01
63009;BME280;49099;28.428;-16.488;2023-04-09T00:19:55;98447.06;;;19.60;50.23
63009;BME280;49099;28.428;-16.488;2023-04-09T00:22:22;98452.44;;;19.60;49.90
63009;BME280;49099;28.428;-16.488;2023-04-09T00:24:49;98447.56;;;19.54;50.20
63009;BME280;49099;28.428;-16.488;2023-04-09T00:27:16;98445.19;;;19.52;50.04
63009;BME280;49099;28.428;-16.488;2023-04-09T00:29:43;98437.25;;;19.56;49.99
63009;BME280;49099;28.428;-16.488;2023-04-09T00:32:10;98430.59;;;19.53;49.64
63009;BME280;49099;28.428;-16.488;2023-04-09T00:34:37;98438.22;;;19.51;49.81
63009;BME280;49099;28.428;-16.488;2023-04-09T00:37:05;98437.44;;;19.51;49.77
63009;BME280;49099;28.428;-16.488;2023-04-09T00:39:32;98431.16;;;19.46;49.76
63009;BME280;49099;28.428;-16.488;2023-04-09T00:42:00;98427.19;;;19.44;49.67
63009;BME280;49099;28.428;-16.488;2023-04-09T00:44:30;98435.25;;;19.44;49.47
63009;BME280;49099;28.428;-16.488;2023-04-09T00:46:57;98442.19;;;19.45;49.20
63009;BME280;49099;28.428;-16.488;2023-04-09T00:49:25;98437.31;;;19.47;49.24
63009;BME280;49099;28.428;-16.488;2023-04-09T00:51:53;98443.81;;;19.46;49.49
63009;BME280;49099;28.428;-16.488;2023-04-09T00:54:20;98436.66;;;19.50;49.05
63009;BME280;49099;28.428;-16.488;2023-04-09T00:56:47;98438.88;;;19.48;48.94
63009;BME280;49099;28.428;-16.488;2023-04-09T00:59:15;98437.31;;;19.47;48.58
63009;BME280;49099;28.428;-16.488;2023-04-09T01:01:42;98435.25;;;19.44;48.50
63009;BME280;49099;28.428;-16.488;2023-04-09T01:04:09;98429.41;;;19.42;48.43
63009;BME280;49099;28.428;-16.488;2023-04-09T01:06:57;98432.44;;;19.40;48.59
63009;BME280;49099;28.428;-16.488;2023-04-09T01:09:36;98430.06;;;19.39;48.93
63009;BME280;49099;28.428;-16.488;2023-04-09T01:12:08;98422.63;;;19.36;48.90
63009;BME280;49099;28.428;-16.488;2023-04-09T01:17:39;98407.47;;;19.31;49.42
63009;BME280;49099;28.428;-16.488;2023-04-09T01:20:13;98416.34;;;19.32;49.38
63009;BME280;49099;28.428;-16.488;2023-04-09T01:25:43;98419.19;;;19.27;49.42
63009;BME280;49099;28.428;-16.488;2023-04-09T01:28:21;98422.34;;;19.29;49.43
63009;BME280;49099;28.428;-16.488;2023-04-09T01:30:57;98419.66;;;19.29;49.14
63009;BME280;49099;28.428;-16.488;2023-04-09T01:33:26;98421.88;;;19.27;49.36
63009;BME280;49099;28.428;-16.488;2023-04-09T01:35:53;98416.50;;;19.27;48.90
63009;BME280;49099;28.428;-16.488;2023-04-09T01:38:21;98412.69;;;19.28;49.21
63009;BME280;49099;28.428;-16.488;2023-04-09T01:40:50;98417.16;;;19.24;49.37
63009;BME280;49099;28.428;-16.488;2023-04-09T01:43:18;98418.72;;;19.25;49.30
63009;BME280;49099;28.428;-16.488;2023-04-09T01:45:46;98413.97;;;19.21;49.53
63009;BME280;49099;28.428;-16.488;2023-04-09T01:48:14;98414.94;;;19.26;49.15
63009;BME280;49099;28.428;-16.488;2023-04-09T01:50:42;98418.41;;;19.26;49.00
63009;BME280;49099;28.428;-16.488;2023-04-09T01:53:10;98421.22;;;19.30;49.02
63009;BME280;49099;28.428;-16.488;2023-04-09T01:55:37;98423.75;;;19.35;49.16
63009;BME280;49099;28.428;-16.488;2023-04-09T01:58:04;98418.38;;;19.35;48.93
63009;BME280;49099;28.428;-16.488;2023-04-09T02:00:42;98422.28;;;19.37;48.88
63009;BME280;49099;28.428;-16.488;2023-04-09T02:03:22;98420.88;;;19.40;48.87
63009;BME280;49099;28.428;-16.488;2023-04-09T02:09:07;98410.75;;;19.37;48.99
63009;BME280;49099;28.428;-16.488;2023-04-09T02:11:37;98408.22;;;19.40;48.83
63009;BME280;49099;28.428;-16.488;2023-04-09T02:14:06;98407.44;;;19.40;48.60
63009;BME280;49099;28.428;-16.488;2023-04-09T02:16:34;98403.16;;;19.39;48.76
63009;BME280;49099;28.428;-16.488;2023-04-09T02:19:02;98400.94;;;19.41;48.67
63009;BME280;49099;28.428;-16.488;2023-04-09T02:21:29;98401.59;;;19.38;48.57
63009;BME280;49099;28.428;-16.488;2023-04-09T02:23:57;98390.50;;;19.39;48.63
63009;BME280;49099;28.428;-16.488;2023-04-09T02:26:24;98383.84;;;19.37;48.32
63009;BME280;49099;28.428;-16.488;2023-04-09T02:28:51;98387.03;;;19.39;48.16
63009;BME280;49099;28.428;-16.488;2023-04-09T02:31:19;98386.25;;;19.38;48.11
63009;BME280;49099;28.428;-16.488;2023-04-09T02:33:46;98375.50;;;19.38;48.18
63009;BME280;49099;28.428;-16.488;2023-04-09T02:36:13;98379.41;;;19.41;47.82
63009;BME280;49099;28.428;-16.488;2023-04-09T02:38:41;98370.69;;;19.44;47.29
63009;BME280;49099;28.428;-16.488;2023-04-09T02:41:09;98374.69;;;19.38;47.71
63009;BME280;49099;28.428;-16.488;2023-04-09T02:43:36;98382.44;;;19.39;47.24
63009;BME280;49099;28.428;-16.488;2023-04-09T02:46:03;98362.16;;;19.42;47.44
63009;BME280;49099;28.428;-16.488;2023-04-09T02:48:30;98368.78;;;19.44;46.92
63009;BME280;49099;28.428;-16.488;2023-04-09T02:50:57;98368.00;;;19.44;47.04
63009;BME280;49099;28.428;-16.488;2023-04-09T02:53:24;98367.09;;;19.40;46.69
63009;BME280;49099;28.428;-16.488;2023-04-09T02:55:52;98380.88;;;19.38;47.04
63009;BME280;49099;28.428;-16.488;2023-04-09T02:58:19;98371.06;;;19.34;46.85
63009;BME280;49099;28.428;-16.488;2023-04-09T03:00:46;98373.75;;;19.34;46.68
63009;BME280;49099;28.428;-16.488;2023-04-09T03:03:13;98372.50;;;19.31;47.07
63009;BME280;49099;28.428;-16.488;2023-04-09T03:05:41;98373.47;;;19.27;46.53
63009;BME280;49099;28.428;-16.488;2023-04-09T03:08:08;98371.31;;;19.11;46.18
63009;BME280;49099;28.428;-16.488;2023-04-09T03:10:35;98362.97;;;19.04;46.65
63009;BME280;49099;28.428;-16.488;2023-04-09T03:13:02;98363.94;;;19.00;46.39
63009;BME280;49099;28.428;-16.488;2023-04-09T03:15:29;98351.34;;;18.91;46.08
63009;BME280;49099;28.428;-16.488;2023-04-09T03:17:56;98357.19;;;18.85;46.48
63009;BME280;49099;28.428;-16.488;2023-04-09T03:20:23;98349.47;;;18.83;47.47
63009;BME280;49099;28.428;-16.488;2023-04-09T03:22:51;98345.34;;;18.86;46.85
63009;BME280;49099;28.428;-16.488;2023-04-09T03:25:18;98342.66;;;18.86;47.05
63009;BME280;49099;28.428;-16.488;2023-04-09T03:27:46;98338.84;;;18.87;46.04
63009;BME280;49099;28.428;-16.488;2023-04-09T03:30:13;98343.56;;;18.90;46.39
63009;BME280;49099;28.428;-16.488;2023-04-09T03:32:40;98343.22;;;19.00;46.37
63009;BME280;49099;28.428;-16.488;2023-04-09T03:35:08;98335.66;;;18.93;45.58
63009;BME280;49099;28.428;-16.488;2023-04-09T03:37:35;98341.81;;;18.94;45.83
63009;BME280;49099;28.428;-16.488;2023-04-09T03:40:02;98333.75;;;18.94;44.98
63009;BME280;49099;28.428;-16.488;2023-04-09T03:42:29;98328.75;;;18.84;45.27
63009;BME280;49099;28.428;-16.488;2023-04-09T03:44:57;98343.28;;;18.83;47.18
63009;BME280;49099;28.428;-16.488;2023-04-09T03:47:24;98340.13;;;18.81;46.55
63009;BME280;49099;28.428;-16.488;2023-04-09T03:49:51;98334.28;;;18.79;46.37
63009;BME280;49099;28.428;-16.488;2023-04-09T03:52:18;98333.34;;;18.75;46.66
63009;BME280;49099;28.428;-16.488;2023-04-09T03:54:45;98325.28;;;18.75;46.84
63009;BME280;49099;28.428;-16.488;2023-04-09T03:57:12;98325.56;;;18.82;46.93
63009;BME280;49099;28.428;-16.488;2023-04-09T03:59:39;98325.56;;;18.82;46.84
63009;BME280;49099;28.428;-16.488;2023-04-09T04:02:06;98314.69;;;18.78;46.78
63009;BME280;49099;28.428;-16.488;2023-04-09T04:04:34;98326.53;;;18.86;46.64
63009;BME280;49099;28.428;-16.488;2023-04-09T04:07:04;98317.34;;;18.87;46.20
63009;BME280;49099;28.428;-16.488;2023-04-09T04:09:35;98308.16;;;18.88;46.45
63009;BME280;49099;28.428;-16.488;2023-04-09T04:12:03;98311.81;;;18.92;46.37
63009;BME280;49099;28.428;-16.488;2023-04-09T04:14:30;98313.84;;;18.95;46.66
63009;BME280;49099;28.428;-16.488;2023-04-09T04:16:57;98305.91;;;18.99;46.43
63009;BME280;49099;28.428;-16.488;2023-04-09T04:19:24;98299.56;;;19.03;46.85
63009;BME280;49099;28.428;-16.488;2023-04-09T04:21:51;98288.31;;;19.10;46.95
63009;BME280;49099;28.428;-16.488;2023-04-09T04:24:18;98291.78;;;19.10;46.28
63009;BME280;49099;28.428;-16.488;2023-04-09T04:26:45;98285.28;;;19.11;46.45
63009;BME280;49099;28.428;-16.488;2023-04-09T04:29:12;98284.66;;;19.14;46.75
63009;BME280;49099;28.428;-16.488;2023-04-09T04:31:39;98283.72;;;19.10;46.80
63009;BME280;49099;28.428;-16.488;2023-04-09T04:34:07;98294.19;;;19.03;46.83
63009;BME280;49099;28.428;-16.488;2023-04-09T04:36:35;98285.47;;;19.06;47.35
63009;BME280;49099;28.428;-16.488;2023-04-09T04:39:03;98289.75;;;19.07;47.81
63009;BME280;49099;28.428;-16.488;2023-04-09T04:41:30;98299.53;;;19.12;47.48
63009;BME280;49099;28.428;-16.488;2023-04-09T04:43:57;98293.81;;;19.13;47.74
63009;BME280;49099;28.428;-16.488;2023-04-09T04:46:24;98298.09;;;19.14;47.92
63009;BME280;49099;28.428;-16.488;2023-04-09T04:48:51;98287.97;;;19.11;48.17
63009;BME280;49099;28.428;-16.488;2023-04-09T04:51:19;98294.19;;;19.03;48.11
63009;BME280;49099;28.428;-16.488;2023-04-09T04:53:46;98301.50;;;18.94;48.11
63009;BME280;49099;28.428;-16.488;2023-04-09T04:56:14;98296.97;;;18.86;48.06
63009;BME280;49099;28.428;-16.488;2023-04-09T04:58:41;98291.75;;;18.81;48.04
63009;BME280;49099;28.428;-16.488;2023-04-09T05:01:09;98294.63;;;18.76;48.21
63009;BME280;49099;28.428;-16.488;2023-04-09T05:03:36;98302.88;;;18.71;47.89
63009;BME280;49099;28.428;-16.488;2023-04-09T05:06:03;98295.59;;;18.62;47.51
63009;BME280;49099;28.428;-16.488;2023-04-09T05:08:30;98299.41;;;18.61;47.64
63009;BME280;49099;28.428;-16.488;2023-04-09T05:10:57;98306.97;;;18.59;47.88
63009;BME280;49099;28.428;-16.488;2023-04-09T05:13:24;98297.16;;;18.63;47.69
63009;BME280;49099;28.428;-16.488;2023-04-09T05:15:52;98301.13;;;18.66;48.17
63009;BME280;49099;28.428;-16.488;2023-04-09T05:18:19;98308.06;;;18.67;47.94
63009;BME280;49099;28.428;-16.488;2023-04-09T05:20:46;98300.19;;;18.62;48.15
63009;BME280;49099;28.428;-16.488;2023-04-09T05:23:13;98300.97;;;18.62;48.35
63009;BME280;49099;28.428;-16.488;2023-04-09T05:25:40;98302.22;;;18.65;48.58
63009;BME280;49099;28.428;-16.488;2023-04-09T05:28:07;98303.66;;;18.71;48.57
63009;BME280;49099;28.428;-16.488;2023-04-09T05:30:36;98304.78;;;18.70;47.82
63009;BME280;49099;28.428;-16.488;2023-04-09T05:33:04;98309.81;;;18.72;48.34
63009;BME280;49099;28.428;-16.488;2023-04-09T05:35:31;98297.78;;;18.78;48.35
63009;BME280;49099;28.428;-16.488;2023-04-09T05:37:58;98294.91;;;18.83;48.39
63009;BME280;49099;28.428;-16.488;2023-04-09T05:40:25;98298.69;;;18.82;47.98
63009;BME280;49099;28.428;-16.488;2023-04-09T05:42:52;98302.84;;;18.79;47.91
63009;BME280;49099;28.428;-16.488;2023-04-09T05:45:19;98292.53;;;18.81;48.15
63009;BME280;49099;28.428;-16.488;2023-04-09T05:47:46;98290.34;;;18.83;47.91
63009;BME280;49099;28.428;-16.488;2023-04-09T05:50:14;98289.84;;;18.81;47.97
63009;BME280;49099;28.428;-16.488;2023-04-09T05:52:41;98295.84;;;18.87;47.75
63009;BME280;49099;28.428;-16.488;2023-04-09T05:55:08;98294.56;;;18.93;47.76
63009;BME280;49099;28.428;-16.488;2023-04-09T05:57:35;98295.81;;;18.96;47.43
63009;BME280;49099;28.428;-16.488;2023-04-09T06:00:03;98299.63;;;18.95;48.14
63009;BME280;49099;28.428;-16.488;2023-04-09T06:02:30;98304.66;;;18.96;47.63
63009;BME280;49099;28.428;-16.488;2023-04-09T06:04:57;98306.88;;;18.94;47.53
63009;BME280;49099;28.428;-16.488;2023-04-09T06:07:24;98310.69;;;18.93;47.63
63009;BME280;49099;28.428;-16.488;2023-04-09T06:09:52;98316.84;;;18.93;47.65
63009;BME280;49099;28.428;-16.488;2023-04-09T06:12:19;98320.66;;;18.92;47.32
63009;BME280;49099;28.428;-16.488;2023-04-09T06:14:47;98313.53;;;18.88;47.34
63009;BME280;49099;28.428;-16.488;2023-04-09T06:17:14;98315.63;;;18.82;47.71
63009;BME280;49099;28.428;-16.488;2023-04-09T06:19:42;98324.00;;;18.81;47.90
63009;BME280;49099;28.428;-16.488;2023-04-09T06:22:09;98324.00;;;18.81;48.39
63009;BME280;49099;28.428;-16.488;2023-04-09T06:24:36;98321.78;;;18.83;48.35
63009;BME280;49099;28.428;-16.488;2023-04-09T06:27:04;98316.56;;;18.86;48.61
63009;BME280;49099;28.428;-16.488;2023-04-09T06:29:31;98317.63;;;18.94;48.24
63009;BME280;49099;28.428;-16.488;2023-04-09T06:31:59;98323.16;;;18.98;47.84
63009;BME280;49099;28.428;-16.488;2023-04-09T06:34:26;98322.56;;;18.92;47.91
63009;BME280;49099;28.428;-16.488;2023-04-09T06:36:53;98321.59;;;18.88;47.84
63009;BME280;49099;28.428;-16.488;2023-04-09T06:39:20;98322.72;;;18.87;47.94
63009;BME280;49099;28.428;-16.488;2023-04-09T06:41:47;98320.16;;;18.90;47.93
63009;BME280;49099;28.428;-16.488;2023-04-09T06:44:15;98326.03;;;18.92;48.17
63009;BME280;49099;28.428;-16.488;2023-04-09T06:46:42;98321.28;;;18.89;48.13
63009;BME280;49099;28.428;-16.488;2023-04-09T06:49:09;98330.63;;;18.92;47.77
63009;BME280;49099;28.428;-16.488;2023-04-09T06:51:36;98326.03;;;18.92;47.37
63009;BME280;49099;28.428;-16.488;2023-04-09T06:54:03;98327.31;;;18.86;47.05
63009;BME280;49099;28.428;-16.488;2023-04-09T06:56:32;98337.72;;;18.88;47.65
63009;BME280;49099;28.428;-16.488;2023-04-09T06:58:59;98335.03;;;18.88;47.33
63009;BME280;49099;28.428;-16.488;2023-04-09T07:01:26;98331.91;;;18.86;47.10
63009;BME280;49099;28.428;-16.488;2023-04-09T07:03:53;98334.13;;;18.84;47.19
63009;BME280;49099;28.428;-16.488;2023-04-09T07:06:21;98339.19;;;18.85;47.40
63009;BME280;49099;28.428;-16.488;2023-04-09T07:08:48;98348.94;;;18.90;47.21
63009;BME280;49099;28.428;-16.488;2023-04-09T07:11:16;98348.03;;;18.86;46.64
63009;BME280;49099;28.428;-16.488;2023-04-09T07:13:43;98353.44;;;18.69;47.64
63009;BME280;49099;28.428;-16.488;2023-04-09T07:16:11;98359.09;;;18.58;47.74
63009;BME280;49099;28.428;-16.488;2023-04-09T07:18:38;98362.44;;;18.55;48.01
63009;BME280;49099;28.428;-16.488;2023-04-09T07:21:05;98366.25;;;18.54;48.35
63009;BME280;49099;28.428;-16.488;2023-04-09T07:23:35;98365.28;;;18.50;48.66
63009;BME280;49099;28.428;-16.488;2023-04-09T07:26:03;98364.84;;;18.40;49.29
63009;BME280;49099;28.428;-16.488;2023-04-09T07:28:31;98367.84;;;18.29;49.39
63009;BME280;49099;28.428;-16.488;2023-04-09T07:31:00;98372.44;;;18.29;49.49
63009;BME280;49099;28.428;-16.488;2023-04-09T07:33:30;98358.38;;;18.32;49.52
63009;BME280;49099;28.428;-16.488;2023-04-09T07:35:57;98367.84;;;18.38;49.51
63009;BME280;49099;28.428;-16.488;2023-04-09T07:38:27;98365.78;;;18.35;48.99
63009;BME280;49099;28.428;-16.488;2023-04-09T07:40:55;98374.16;;;18.42;48.91
63009;BME280;49099;28.428;-16.488;2023-04-09T07:43:22;98377.00;;;18.54;48.99
63009;BME280;49099;28.428;-16.488;2023-04-09T07:45:49;98382.34;;;18.63;48.96
63009;BME280;49099;28.428;-16.488;2023-04-09T07:48:17;98386.63;;;18.73;49.08
63009;BME280;49099;28.428;-16.488;2023-04-09T07:50:44;98395.94;;;18.84;48.92
63009;BME280;49099;28.428;-16.488;2023-04-09T07:53:11;98394.78;;;18.93;48.94
63009;BME280;49099;28.428;-16.488;2023-04-09T07:55:39;98393.00;;;19.06;48.84
63009;BME280;49099;28.428;-16.488;2023-04-09T07:58:07;98397.84;;;19.21;48.53
63009;BME280;49099;28.428;-16.488;2023-04-09T08:00:34;98394.81;;;19.32;48.34
63009;BME280;49099;28.428;-16.488;2023-04-09T08:03:01;98399.69;;;19.38;48.62
63009;BME280;49099;28.428;-16.488;2023-04-09T08:05:29;98399.66;;;19.47;48.16
63009;BME280;49099;28.428;-16.488;2023-04-09T08:07:57;98404.25;;;19.46;47.83
63009;BME280;49099;28.428;-16.488;2023-04-09T08:10:24;98408.00;;;19.54;47.86
63009;BME280;49099;28.428;-16.488;2023-04-09T08:12:51;98410.84;;;19.58;47.54
63009;BME280;49099;28.428;-16.488;2023-04-09T08:15:18;98408.31;;;19.61;47.81
63009;BME280;49099;28.428;-16.488;2023-04-09T08:17:45;98408.63;;;19.60;47.35
63009;BME280;49099;28.428;-16.488;2023-04-09T08:20:13;98407.03;;;19.59;47.43
63009;BME280;49099;28.428;-16.488;2023-04-09T08:22:40;98411.00;;;19.53;47.42
63009;BME280;49099;28.428;-16.488;2023-04-09T08:25:07;98416.06;;;19.54;47.80
63009;BME280;49099;28.428;-16.488;2023-04-09T08:27:35;98413.22;;;19.59;46.92
63009;BME280;49099;28.428;-16.488;2023-04-09T08:30:03;98415.91;;;19.59;47.84
63009;BME280;49099;28.428;-16.488;2023-04-09T08:32:30;98426.50;;;19.64;49.23
63009;BME280;49099;28.428;-16.488;2023-04-09T08:34:57;98433.44;;;19.65;49.37
63009;BME280;49099;28.428;-16.488;2023-04-09T08:37:24;98436.09;;;19.74;49.22
63009;BME280;49099;28.428;-16.488;2023-04-09T08:39:52;98446.34;;;19.81;49.04
63009;BME280;49099;28.428;-16.488;2023-04-09T08:42:20;98442.41;;;19.78;49.37
63009;BME280;49099;28.428;-16.488;2023-04-09T08:44:49;98441.63;;;19.78;49.33
63009;BME280;49099;28.428;-16.488;2023-04-09T08:47:17;98447.00;;;19.78;49.29
63009;BME280;49099;28.428;-16.488;2023-04-09T08:49:45;98463.16;;;19.78;49.34
63009;BME280;49099;28.428;-16.488;2023-04-09T08:52:14;98465.63;;;19.83;48.70
63009;BME280;49099;28.428;-16.488;2023-04-09T08:54:43;98467.50;;;19.91;48.22
63009;BME280;49099;28.428;-16.488;2023-04-09T08:57:10;98473.81;;;19.95;48.08
63009;BME280;49099;28.428;-16.488;2023-04-09T08:59:37;98480.13;;;19.99;47.50
63009;BME280;49099;28.428;-16.488;2023-04-09T09:02:09;98482.75;;;20.08;46.02
63009;BME280;49099;28.428;-16.488;2023-04-09T09:04:48;98488.28;;;20.11;44.94
63009;BME280;49099;28.428;-16.488;2023-04-09T09:07:16;98482.06;;;20.19;44.55
63009;BME280;49099;28.428;-16.488;2023-04-09T09:09:54;98488.84;;;20.25;44.69
63009;BME280;49099;28.428;-16.488;2023-04-09T09:12:38;98494.78;;;20.40;45.10
63009;BME280;49099;28.428;-16.488;2023-04-09T09:15:27;98499.22;;;20.36;46.87
63009;BME280;49099;28.428;-16.488;2023-04-09T09:17:56;98504.66;;;20.27;46.96
63009;BME280;49099;28.428;-16.488;2023-04-09T09:20:25;98504.28;;;20.16;46.58
63009;BME280;49099;28.428;-16.488;2023-04-09T09:22:54;98504.91;;;20.13;46.48
63009;BME280;49099;28.428;-16.488;2023-04-09T09:25:22;98513.72;;;20.22;46.67
63009;BME280;49099;28.428;-16.488;2023-04-09T09:27:53;98511.56;;;20.16;47.10
63009;BME280;49099;28.428;-16.488;2023-04-09T09:30:23;98521.34;;;20.20;47.55
63009;BME280;49099;28.428;-16.488;2023-04-09T09:33:11;98520.56;;;20.20;47.75
63009;BME280;49099;28.428;-16.488;2023-04-09T09:35:59;98517.84;;;20.20;48.21
63009;BME280;49099;28.428;-16.488;2023-04-09T09:38:29;98523.53;;;20.27;48.25
63009;BME280;49099;28.428;-16.488;2023-04-09T09:40:57;98527.47;;;20.29;48.96
63009;BME280;49099;28.428;-16.488;2023-04-09T09:43:24;98533.59;;;20.09;49.14
63009;BME280;49099;28.428;-16.488;2023-04-09T09:45:52;98532.66;;;20.05;49.36
63009;BME280;49099;28.428;-16.488;2023-04-09T09:48:19;98534.91;;;20.03;49.78
63009;BME280;49099;28.428;-16.488;2023-04-09T09:50:47;98544.38;;;20.09;49.67
63009;BME280;49099;28.428;-16.488;2023-04-09T09:53:16;98546.41;;;20.12;49.94
63009;BME280;49099;28.428;-16.488;2023-04-09T09:55:51;98550.56;;;20.10;49.99
63009;BME280;49099;28.428;-16.488;2023-04-09T09:58:23;98551.97;;;20.07;49.85
63009;BME280;49099;28.428;-16.488;2023-04-09T10:00:53;98559.81;;;19.91;50.78
63009;BME280;49099;28.428;-16.488;2023-04-09T10:03:28;98560.97;;;19.82;51.12
63009;BME280;49099;28.428;-16.488;2023-04-09T10:05:57;98565.88;;;19.80;51.10
63009;BME280;49099;28.428;-16.488;2023-04-09T10:08:25;98574.56;;;19.85;51.32
63009;BME280;49099;28.428;-16.488;2023-04-09T10:10:52;98577.53;;;20.01;50.90
63009;BME280;49099;28.428;-16.488;2023-04-09T10:16:00;98589.81;;;20.11;51.23
63009;BME280;49099;28.428;-16.488;2023-04-09T10:18:31;98587.91;;;20.11;51.64
63009;BME280;49099;28.428;-16.488;2023-04-09T10:23:54;98591.59;;;19.98;53.21
63009;BME280;49099;28.428;-16.488;2023-04-09T10:26:24;98601.75;;;20.01;53.47
63009;BME280;49099;28.428;-16.488;2023-04-09T10:29:05;98605.13;;;19.81;54.03
63009;BME280;49099;28.428;-16.488;2023-04-09T10:32:08;98608.47;;;19.78;54.28
63009;BME280;49099;28.428;-16.488;2023-04-09T10:34:40;98611.94;;;19.87;53.88
63009;BME280;49099;28.428;-16.488;2023-04-09T10:37:09;98611.16;;;19.86;53.12
63009;BME280;49099;28.428;-16.488;2023-04-09T10:39:43;98613.06;;;19.86;52.85
63009;BME280;49099;28.428;-16.488;2023-04-09T10:42:13;98611.44;;;19.93;52.68
63009;BME280;49099;28.428;-16.488;2023-04-09T10:44:40;98610.16;;;19.91;52.79
63009;BME280;49099;28.428;-16.488;2023-04-09T10:47:09;98626.22;;;19.79;53.19
63009;BME280;49099;28.428;-16.488;2023-04-09T10:49:40;98629.22;;;19.77;53.64
63009;BME280;49099;28.428;-16.488;2023-04-09T10:52:11;98621.63;;;19.79;54.23
63009;BME280;49099;28.428;-16.488;2023-04-09T10:54:43;98618.25;;;19.91;53.84
63009;BME280;49099;28.428;-16.488;2023-04-09T10:57:14;98625.84;;;19.89;54.22
63009;BME280;49099;28.428;-16.488;2023-04-09T10:59:47;98628.38;;;19.94;53.30
63009;BME280;49099;28.428;-16.488;2023-04-09T11:05:32;98623.28;;;20.01;53.18
63009;BME280;49099;28.428;-16.488;2023-04-09T11:08:09;98626.06;;;20.13;52.69
63009;BME280;49099;28.428;-16.488;2023-04-09T11:10:39;98619.28;;;20.16;52.63
63009;BME280;49099;28.428;-16.488;2023-04-09T11:13:11;98618.34;;;20.12;51.29
63009;BME280;49099;28.428;-16.488;2023-04-09T11:15:39;98615.97;;;20.10;52.13
63009;BME280;49099;28.428;-16.488;2023-04-09T11:18:07;98617.53;;;20.11;52.19
63009;BME280;49099;28.428;-16.488;2023-04-09T11:20:37;98616.41;;;20.12;52.65
63009;BME280;49099;28.428;-16.488;2023-04-09T11:23:06;98615.75;;;20.15;52.64
63009;BME280;49099;28.428;-16.488;2023-04-09T11:25:33;98617.03;;;20.18;52.36
63009;BME280;49099;28.428;-16.488;2023-04-09T11:28:02;98613.56;;;20.17;53.49
63009;BME280;49099;28.428;-16.488;2023-04-09T11:30:30;98612.44;;;20.18;53.47
63009;BME280;49099;28.428;-16.488;2023-04-09T11:33:00;98619.69;;;20.26;52.94
63009;BME280;49099;28.428;-16.488;2023-04-09T11:35:28;98620.03;;;20.25;52.88
63009;BME280;49099;28.428;-16.488;2023-04-09T11:37:55;98617.16;;;20.21;53.48
63009;BME280;49099;28.428;-16.488;2023-04-09T11:40:27;98623.53;;;20.17;53.21
63009;BME280;49099;28.428;-16.488;2023-04-09T11:42:55;98615.47;;;20.17;53.70
63009;BME280;49099;28.428;-16.488;2023-04-09T11:45:27;98617.16;;;20.21;54.39
63009;BME280;49099;28.428;-16.488;2023-04-09T11:47:55;98616.53;;;20.24;53.48
63009;BME280;49099;28.428;-16.488;2023-04-09T11:50:23;98609.72;;;20.27;52.32
63009;BME280;49099;28.428;-16.488;2023-04-09T11:52:50;98616.66;;;20.28;52.06
63009;BME280;49099;28.428;-16.488;2023-04-09T11:55:36;98614.25;;;20.35;52.71
63009;BME280;49099;28.428;-16.488;2023-04-09T11:58:03;98617.91;;;20.39;52.02
63009;BME280;49099;28.428;-16.488;2023-04-09T12:00:31;98612.34;;;20.36;51.95
63009;BME280;49099;28.428;-16.488;2023-04-09T12:03:01;98609.38;;;20.28;51.46
63009;BME280;49099;28.428;-16.488;2023-04-09T12:05:33;98614.75;;;20.28;52.63
63009;BME280;49099;28.428;-16.488;2023-04-09T12:08:02;98611.31;;;20.19;52.42
63009;BME280;49099;28.428;-16.488;2023-04-09T12:10:35;98613.19;;;20.27;52.90
63009;BME280;49099;28.428;-16.488;2023-04-09T12:13:09;98607.44;;;20.38;53.47
63009;BME280;49099;28.428;-16.488;2023-04-09T12:15:38;98600.91;;;20.39;53.30
63009;BME280;49099;28.428;-16.488;2023-04-09T12:18:15;98605.69;;;20.42;52.75
63009;BME280;49099;28.428;-16.488;2023-04-09T12:20:42;98597.25;;;20.43;52.56
63009;BME280;49099;28.428;-16.488;2023-04-09T12:23:11;98610.59;;;20.40;52.45
63009;BME280;49099;28.428;-16.488;2023-04-09T12:25:40;98605.41;;;20.35;52.83
63009;BME280;49099;28.428;-16.488;2023-04-09T12:28:10;98605.03;;;20.45;52.68
63009;BME280;49099;28.428;-16.488;2023-04-09T12:30:37;98606.06;;;20.61;51.65
63009;BME280;49099;28.428;-16.488;2023-04-09T12:33:04;98601.78;;;20.60;52.31
63009;BME280;49099;28.428;-16.488;2023-04-09T12:35:35;98596.22;;;20.65;52.27
63009;BME280;49099;28.428;-16.488;2023-04-09T12:38:04;98594.31;;;20.86;52.30
63009;BME280;49099;28.428;-16.488;2023-04-09T12:40:31;98596.53;;;20.84;51.36
63009;BME280;49099;28.428;-16.488;2023-04-09T12:42:58;98601.03;;;20.80;51.30
63009;BME280;49099;28.428;-16.488;2023-04-09T12:45:25;98594.44;;;20.90;51.76
63009;BME280;49099;28.428;-16.488;2023-04-09T12:47:53;98597.75;;;20.96;52.03
63009;BME280;49099;28.428;-16.488;2023-04-09T12:50:21;98598.19;;;20.98;51.83
63009;BME280;49099;28.428;-16.488;2023-04-09T12:52:48;98593.00;;;20.93;51.28
63009;BME280;49099;28.428;-16.488;2023-04-09T12:55:15;98587.22;;;20.82;51.61
63009;BME280;49099;28.428;-16.488;2023-04-09T12:57:43;98601.66;;;20.77;51.78
63009;BME280;49099;28.428;-16.488;2023-04-09T13:00:12;98595.19;;;20.78;51.36
63009;BME280;49099;28.428;-16.488;2023-04-09T13:02:39;98597.22;;;20.81;50.71
63009;BME280;49099;28.428;-16.488;2023-04-09T13:05:06;98597.06;;;20.99;49.37